createdAt,value
2022-12-12T00:00:25.124Z,99139.72
2022-12-12T00:02:54.843Z,99149.91
2022-12-12T00:05:21.586Z,99150.78
2022-12-12T00:07:48.142Z,99146.19
2022-12-12T00:10:17.207Z,99156.63
2022-12-12T00:12:43.702Z,99155.88
2022-12-12T00:15:10.540Z,99168.84
2022-12-12T00:17:37.330Z,99168.25
2022-12-12T00:20:04.415Z,99175.03
2022-12-12T00:22:30.950Z,99175.66
2022-12-12T00:24:57.591Z,99184.97
2022-12-12T00:27:24.131Z,99182.72
2022-12-12T00:29:55.159Z,99178.53
2022-12-12T00:32:22.254Z,99184.00
2022-12-12T00:34:49.375Z,99177.75
2022-12-12T00:37:15.994Z,99194.25
2022-12-12T00:39:42.544Z,99185.09
2022-12-12T00:42:09.068Z,99207.25
2022-12-12T00:44:35.661Z,99211.81
2022-12-12T00:47:02.902Z,99216.53
2022-12-12T00:49:32.262Z,99214.47
2022-12-12T00:52:01.275Z,99210.78
2022-12-12T00:54:27.833Z,99220.53
2022-12-12T00:56:54.390Z,99209.00
2022-12-12T00:59:23.988Z,99214.56
2022-12-12T01:01:50.633Z,99212.56
2022-12-12T01:04:19.581Z,99207.03
2022-12-12T01:06:46.856Z,99208.34
2022-12-12T01:09:14.141Z,99199.38
2022-12-12T01:11:40.665Z,99203.44
2022-12-12T01:14:07.467Z,99209.03
2022-12-12T01:16:36.286Z,99200.16
2022-12-12T01:19:05.452Z,99195.88
2022-12-12T01:21:34.525Z,99203.84
2022-12-12T01:24:01.608Z,99187.22
2022-12-12T01:26:30.710Z,99195.50
2022-12-12T01:28:57.226Z,99194.59
2022-12-12T01:31:23.885Z,99202.53
2022-12-12T01:33:53.003Z,99203.25
2022-12-12T01:36:20.790Z,99199.03
2022-12-12T01:38:53.092Z,99202.72
2022-12-12T01:41:20.286Z,99193.72
2022-12-12T01:43:46.862Z,99191.28
2022-12-12T01:46:22.599Z,99188.13
2022-12-12T01:48:50.744Z,99177.50
2022-12-12T01:51:19.102Z,99176.63
2022-12-12T01:53:45.694Z,99178.53
2022-12-12T01:56:12.915Z,99184.63
2022-12-12T01:58:43.790Z,99170.88
2022-12-12T02:01:10.729Z,99175.13
2022-12-12T02:03:40.662Z,99168.16
2022-12-12T02:06:07.959Z,99177.78
2022-12-12T02:08:36.899Z,99182.41
2022-12-12T02:11:08.006Z,99188.16
2022-12-12T02:13:34.620Z,99183.56
2022-12-12T02:16:07.898Z,99192.34
2022-12-12T02:18:55.204Z,99200.00
2022-12-12T02:21:24.522Z,99181.63
2022-12-12T02:23:51.663Z,99194.28
2022-12-12T02:26:33.196Z,99193.31
2022-12-12T02:29:08.889Z,99193.13
2022-12-12T02:31:41.006Z,99194.59
2022-12-12T02:34:09.668Z,99186.66
2022-12-12T02:36:39.342Z,99187.28
2022-12-12T02:39:05.855Z,99177.78
2022-12-12T02:41:32.327Z,99189.75
2022-12-12T02:44:14.519Z,99184.69
2022-12-12T02:46:52.831Z,99183.94
2022-12-12T02:49:23.192Z,99183.44
2022-12-12T02:51:52.064Z,99179.94
2022-12-12T02:54:19.887Z,99195.75
2022-12-12T02:56:46.467Z,99198.06
2022-12-12T02:59:22.238Z,99190.38
2022-12-12T03:01:54.870Z,99191.13
2022-12-12T03:04:48.278Z,99196.34
2022-12-12T03:07:56.551Z,99192.81
2022-12-12T03:10:32.465Z,99200.50
2022-12-12T03:13:04.504Z,99201.56
2022-12-12T03:15:36.372Z,99195.00
2022-12-12T03:18:06.036Z,99196.22
2022-12-12T03:20:36.092Z,99200.06
2022-12-12T03:23:03.412Z,99210.66
2022-12-12T03:25:34.498Z,99200.50
2022-12-12T03:28:01.004Z,99206.22
2022-12-12T03:30:27.495Z,99202.53
2022-12-12T03:32:58.856Z,99218.38
2022-12-12T03:35:29.200Z,99193.91
2022-12-12T03:37:58.402Z,99201.09
2022-12-12T03:40:30.183Z,99207.75
2022-12-12T03:42:59.781Z,99203.34
2022-12-12T03:45:35.258Z,99213.19
2022-12-12T03:48:08.327Z,99215.63
2022-12-12T03:51:04.307Z,99212.81
2022-12-12T03:53:37.486Z,99223.66
2022-12-12T03:56:08.274Z,99221.09
2022-12-12T03:58:53.286Z,99227.13
2022-12-12T04:01:22.705Z,99244.91
2022-12-12T04:03:56.473Z,99231.91
2022-12-12T04:06:36.201Z,99244.72
2022-12-12T04:09:29.570Z,99247.34
2022-12-12T04:12:21.556Z,99257.03
2022-12-12T04:15:00.300Z,99267.28
2022-12-12T04:17:32.180Z,99274.69
2022-12-12T04:20:20.564Z,99267.34
2022-12-12T04:23:10.992Z,99269.44
2022-12-12T04:26:01.208Z,99276.22
2022-12-12T04:28:27.770Z,99288.09
2022-12-12T04:30:54.620Z,99291.63
2022-12-12T04:33:21.277Z,99307.78
2022-12-12T04:35:48.373Z,99292.03
2022-12-12T04:38:19.487Z,99308.69
2022-12-12T04:40:46.883Z,99297.09
2022-12-12T04:43:19.761Z,99303.25
2022-12-12T04:45:57.110Z,99306.06
2022-12-12T04:48:29.949Z,99300.88
2022-12-12T04:50:56.490Z,99308.03
2022-12-12T04:53:29.948Z,99303.53
2022-12-12T04:56:01.852Z,99311.47
2022-12-12T04:58:28.493Z,99308.94
2022-12-12T05:01:07.829Z,99324.03
2022-12-12T05:03:39.108Z,99314.22
2022-12-12T05:06:12.534Z,99310.91
2022-12-12T05:08:43.206Z,99321.16
2022-12-12T05:11:09.796Z,99313.84
2022-12-12T05:13:38.051Z,99310.09
2022-12-12T05:16:07.533Z,99303.47
2022-12-12T05:18:34.106Z,99313.66
2022-12-12T05:21:00.656Z,99324.56
2022-12-12T05:23:31.570Z,99328.78
2022-12-12T05:26:05.699Z,99337.03
2022-12-12T05:28:32.357Z,99333.69
2022-12-12T05:30:59.353Z,99344.75
2022-12-12T05:33:26.075Z,99346.13
2022-12-12T05:35:55.079Z,99344.38
2022-12-12T05:38:25.409Z,99350.63
2022-12-12T05:40:56.944Z,99350.50
2022-12-12T05:43:23.481Z,99344.91
2022-12-12T05:45:50.269Z,99342.94
2022-12-12T05:48:22.612Z,99349.41
2022-12-12T05:50:50.897Z,99355.72
2022-12-12T05:53:17.951Z,99350.81
2022-12-12T05:55:44.464Z,99364.59
2022-12-12T05:58:11.118Z,99364.28
2022-12-12T06:00:37.701Z,99357.13
2022-12-12T06:03:04.261Z,99372.25
2022-12-12T06:05:31.043Z,99367.84
2022-12-12T06:07:57.644Z,99363.97
2022-12-12T06:10:24.315Z,99371.38
2022-12-12T06:12:53.346Z,99374.72
2022-12-12T06:15:28.152Z,99372.06
2022-12-12T06:17:55.226Z,99369.22
2022-12-12T06:20:21.845Z,99375.84
2022-12-12T06:22:53.401Z,99387.75
2022-12-12T06:25:20.645Z,99387.56
2022-12-12T06:27:47.506Z,99390.28
2022-12-12T06:30:16.574Z,99392.84
2022-12-12T06:32:43.381Z,99390.28
2022-12-12T06:35:10.276Z,99390.28
2022-12-12T06:37:37.222Z,99391.09
2022-12-12T06:40:04.465Z,99395.78
2022-12-12T06:42:31.017Z,99395.50
2022-12-12T06:44:57.584Z,99401.47
2022-12-12T06:47:24.191Z,99402.25
2022-12-12T06:49:50.828Z,99411.03
2022-12-12T06:52:19.797Z,99416.34
2022-12-12T06:54:48.691Z,99421.63
2022-12-12T06:57:17.769Z,99422.16
2022-12-12T06:59:44.586Z,99422.13
2022-12-12T07:02:13.645Z,99427.00
2022-12-12T07:04:41.380Z,99424.66
2022-12-12T07:07:07.931Z,99430.53
2022-12-12T07:09:34.561Z,99421.44
2022-12-12T07:12:03.694Z,99431.69
2022-12-12T07:14:30.321Z,99430.59
2022-12-12T07:16:56.917Z,99428.78
2022-12-12T07:19:28.009Z,99426.25
2022-12-12T07:21:57.054Z,99436.41
2022-12-12T07:24:26.063Z,99441.63
2022-12-12T07:26:52.663Z,99440.97
2022-12-12T07:29:19.217Z,99447.88
2022-12-12T07:31:45.785Z,99440.59
2022-12-12T07:34:15.360Z,99439.88
2022-12-12T07:36:44.478Z,99434.63
2022-12-12T07:39:13.560Z,99443.66
2022-12-12T07:41:43.800Z,99448.50
2022-12-12T07:44:10.313Z,99435.88
2022-12-12T07:46:39.216Z,99435.59
2022-12-12T07:49:05.833Z,99448.53
2022-12-12T07:51:32.519Z,99452.81
2022-12-12T07:53:59.077Z,99460.94
2022-12-12T07:56:25.705Z,99454.97
2022-12-12T07:58:53.396Z,99467.28
2022-12-12T08:01:21.372Z,99464.56
2022-12-12T08:03:48.181Z,99463.28
2022-12-12T08:06:16.327Z,99457.56
2022-12-12T08:08:45.756Z,99472.03
2022-12-12T08:11:13.528Z,99485.50
2022-12-12T08:13:40.487Z,99475.41
2022-12-12T08:16:08.056Z,99479.81
2022-12-12T08:18:40.106Z,99484.50
2022-12-12T08:21:09.308Z,99485.28
2022-12-12T08:23:36.205Z,99483.22
2022-12-12T08:26:14.819Z,99500.28
2022-12-12T08:28:49.838Z,99496.75
2022-12-12T08:31:16.979Z,99509.38
2022-12-12T08:33:43.928Z,99507.81
2022-12-12T08:36:11.348Z,99492.94
2022-12-12T08:38:37.905Z,99493.50
2022-12-12T08:41:04.681Z,99496.25
2022-12-12T08:43:31.736Z,99490.06
2022-12-12T08:46:01.892Z,99470.50
2022-12-12T08:48:30.917Z,99481.09
2022-12-12T08:50:57.691Z,99488.22
2022-12-12T08:53:24.545Z,99496.16
2022-12-12T08:55:51.135Z,99484.22
2022-12-12T08:58:17.730Z,99493.81
2022-12-12T09:00:44.520Z,99485.75
2022-12-12T09:03:13.985Z,99493.41
2022-12-12T09:05:44.530Z,99494.19
2022-12-12T09:08:11.714Z,99493.81
2022-12-12T09:10:42.231Z,99507.09
2022-12-12T09:13:08.997Z,99499.50
2022-12-12T09:15:38.431Z,99492.22
2022-12-12T09:18:05.336Z,99485.28
2022-12-12T09:20:34.364Z,99515.16
2022-12-12T09:23:00.951Z,99505.94
2022-12-12T09:25:27.674Z,99506.69
2022-12-12T09:27:54.318Z,99506.66
2022-12-12T09:30:23.365Z,99501.75
2022-12-12T09:32:49.959Z,99502.94
2022-12-12T09:35:18.791Z,99507.84
2022-12-12T09:37:45.364Z,99506.66
2022-12-12T09:40:16.670Z,99498.06
2022-12-12T09:42:49.553Z,99495.56
2022-12-12T09:45:16.342Z,99506.16
2022-12-12T09:47:43.597Z,99481.53
2022-12-12T09:50:25.516Z,99492.28
2022-12-12T09:52:52.754Z,99492.53
2022-12-12T09:55:38.196Z,99492.22
2022-12-12T09:58:07.060Z,99500.94
2022-12-12T10:00:36.645Z,99497.94
2022-12-12T10:03:35.858Z,99495.06
2022-12-12T10:06:35.874Z,99515.25
2022-12-12T10:09:11.735Z,99502.88
2022-12-12T10:11:51.949Z,99506.81
2022-12-12T10:14:34.491Z,99506.94
2022-12-12T10:17:01.641Z,99497.63
2022-12-12T10:19:31.667Z,99519.19
2022-12-12T10:22:00.806Z,99519.56
2022-12-12T10:24:27.345Z,99506.56
2022-12-12T10:26:54.551Z,99514.59
2022-12-12T10:29:22.083Z,99527.69
2022-12-12T10:32:05.889Z,99535.72
2022-12-12T10:34:38.703Z,99541.47
2022-12-12T10:37:16.030Z,99530.63
2022-12-12T10:39:47.803Z,99542.59
2022-12-12T10:42:23.548Z,99545.03
2022-12-12T10:45:00.717Z,99543.28
2022-12-12T10:47:29.654Z,99541.59
2022-12-12T10:50:03.045Z,99542.22
2022-12-12T10:52:39.970Z,99533.66
2022-12-12T10:55:09.218Z,99537.25
2022-12-12T10:57:35.812Z,99526.75
2022-12-12T11:00:15.590Z,99542.84
2022-12-12T11:02:44.015Z,99531.19
2022-12-12T11:05:26.881Z,99530.78
2022-12-12T11:08:06.733Z,99535.66
2022-12-12T11:10:36.215Z,99542.19
2022-12-12T11:13:08.938Z,99538.63
2022-12-12T11:15:46.888Z,99542.38
2022-12-12T11:18:16.939Z,99556.25
2022-12-12T11:20:45.604Z,99551.22
2022-12-12T11:23:45.799Z,99561.94
2022-12-12T11:26:13.581Z,99573.94
2022-12-12T11:28:40.241Z,99554.44
2022-12-12T11:31:17.570Z,99551.72
2022-12-12T11:33:48.667Z,99540.41
2022-12-12T11:36:15.680Z,99575.34
2022-12-12T11:38:46.873Z,99552.66
2022-12-12T11:41:14.283Z,99552.09
2022-12-12T11:43:49.358Z,99562.88
2022-12-12T11:46:15.981Z,99559.44
2022-12-12T11:48:42.535Z,99563.31
2022-12-12T11:51:09.116Z,99568.75
2022-12-12T11:53:39.930Z,99571.09
2022-12-12T11:56:08.840Z,99569.16
2022-12-12T11:58:35.382Z,99566.34
2022-12-12T12:01:06.322Z,99560.03
2022-12-12T12:03:38.400Z,99557.53
2022-12-12T12:06:11.891Z,99584.00
2022-12-12T12:08:49.927Z,99586.78
2022-12-12T12:11:36.113Z,99571.81
2022-12-12T12:14:06.004Z,99565.22
2022-12-12T12:16:32.716Z,99566.19
2022-12-12T12:19:01.637Z,99567.72
2022-12-12T12:21:46.629Z,99564.53
2022-12-12T12:24:18.711Z,99555.53
2022-12-12T12:27:04.400Z,99562.69
2022-12-12T12:30:10.068Z,99564.38
2022-12-12T12:32:55.616Z,99571.22
2022-12-12T12:35:24.692Z,99548.47
2022-12-12T12:38:06.937Z,99553.91
2022-12-12T12:40:52.381Z,99552.88
2022-12-12T12:43:19.471Z,99561.00
2022-12-12T12:45:57.597Z,99564.13
2022-12-12T12:48:27.300Z,99559.53
2022-12-12T12:51:03.079Z,99578.75
2022-12-12T12:53:37.110Z,99566.13
2022-12-12T12:56:08.094Z,99571.41
2022-12-12T12:58:42.144Z,99575.03
2022-12-12T13:01:13.198Z,99577.66
2022-12-12T13:03:52.068Z,99579.97
2022-12-12T13:06:20.352Z,99577.72
2022-12-12T13:08:47.008Z,99578.38
2022-12-12T13:11:28.814Z,99581.09
2022-12-12T13:13:56.380Z,99576.25
2022-12-12T13:16:23.471Z,99582.19
2022-12-12T13:18:55.698Z,99589.25
2022-12-12T13:21:41.075Z,99570.94
2022-12-12T13:24:14.221Z,99587.09
2022-12-12T13:26:56.261Z,99588.16
2022-12-12T13:29:35.595Z,99599.31
2022-12-12T13:32:11.674Z,99589.69
2022-12-12T13:34:41.341Z,99589.13
2022-12-12T13:37:07.981Z,99585.56
2022-12-12T13:39:35.851Z,99626.78
2022-12-12T13:42:06.619Z,99607.94
2022-12-12T13:44:44.523Z,99612.91
2022-12-12T13:47:23.980Z,99593.84
2022-12-12T13:49:56.484Z,99595.38
2022-12-12T13:52:30.882Z,99593.84
2022-12-12T13:55:20.140Z,99597.94
2022-12-12T13:58:08.196Z,99599.81
2022-12-12T14:00:35.644Z,99599.47
2022-12-12T14:03:13.421Z,99601.34
2022-12-12T14:05:43.285Z,99590.50
2022-12-12T14:08:09.884Z,99598.72
2022-12-12T14:10:39.972Z,99602.50
2022-12-12T14:13:33.568Z,99603.84
2022-12-12T14:16:05.203Z,99594.53
2022-12-12T14:18:38.026Z,99599.06
2022-12-12T14:21:08.204Z,99592.94
2022-12-12T14:23:35.961Z,99602.81
2022-12-12T14:26:02.738Z,99598.59
2022-12-12T14:28:30.143Z,99608.91
2022-12-12T14:30:59.806Z,99593.22
2022-12-12T14:33:32.626Z,99601.81
2022-12-12T14:36:03.900Z,99605.50
2022-12-12T14:38:34.972Z,99593.47
2022-12-12T14:41:05.119Z,99604.50
2022-12-12T14:43:35.984Z,99607.84
2022-12-12T14:46:02.758Z,99592.28
2022-12-12T14:48:29.368Z,99599.22
2022-12-12T14:50:59.249Z,99603.41
2022-12-12T14:53:27.834Z,99603.84
2022-12-12T14:55:58.696Z,99620.00
2022-12-12T14:58:27.499Z,99616.56
2022-12-12T15:00:58.111Z,99629.50
2022-12-12T15:03:51.128Z,99602.03
2022-12-12T15:06:27.649Z,99620.56
2022-12-12T15:08:55.107Z,99634.06
2022-12-12T15:11:26.526Z,99633.78
2022-12-12T15:13:57.106Z,99639.16
2022-12-12T15:16:31.912Z,99641.97
2022-12-12T15:18:58.935Z,99642.31
2022-12-12T15:21:25.566Z,99642.72
2022-12-12T15:23:52.557Z,99647.66
2022-12-12T15:26:21.842Z,99648.56
2022-12-12T15:28:51.434Z,99653.28
2022-12-12T15:31:20.564Z,99653.56
2022-12-12T15:33:51.903Z,99666.34
2022-12-12T15:36:27.730Z,99662.22
2022-12-12T15:39:07.075Z,99662.50
2022-12-12T15:41:34.107Z,99659.84
2022-12-12T15:44:01.393Z,99672.38
2022-12-12T15:46:29.981Z,99673.56
2022-12-12T15:48:56.855Z,99674.47
2022-12-12T15:51:25.476Z,99683.38
2022-12-12T15:53:57.049Z,99680.25
2022-12-12T15:56:27.767Z,99681.63
2022-12-12T15:59:15.456Z,99678.28
2022-12-12T16:01:42.362Z,99684.78
2022-12-12T16:04:10.694Z,99675.53
2022-12-12T16:06:38.389Z,99682.81
2022-12-12T16:09:09.835Z,99688.38
2022-12-12T16:11:37.769Z,99671.59
2022-12-12T16:14:05.158Z,99666.97
2022-12-12T16:16:40.211Z,99682.56
2022-12-12T16:19:16.574Z,99677.41
2022-12-12T16:21:43.145Z,99676.88
2022-12-12T16:24:21.136Z,99679.72
2022-12-12T16:26:51.025Z,99699.91
2022-12-12T16:29:17.666Z,99680.63
2022-12-12T16:31:45.381Z,99674.28
2022-12-12T16:34:14.509Z,99671.50
2022-12-12T16:36:43.624Z,99682.09
2022-12-12T16:39:13.909Z,99679.19
2022-12-12T16:41:43.150Z,99674.28
2022-12-12T16:44:09.749Z,99688.19
2022-12-12T16:46:37.157Z,99686.97
2022-12-12T16:49:05.518Z,99681.31
2022-12-12T16:51:38.477Z,99685.06
2022-12-12T16:54:05.107Z,99678.78
2022-12-12T16:56:31.711Z,99676.44
2022-12-12T16:58:58.296Z,99683.78
2022-12-12T17:01:25.010Z,99695.94
2022-12-12T17:03:52.008Z,99703.41
2022-12-12T17:06:18.670Z,99697.75
2022-12-12T17:08:45.262Z,99698.13
2022-12-12T17:11:15.000Z,99698.63
2022-12-12T17:13:46.721Z,99707.06
2022-12-12T17:16:14.954Z,99703.50
2022-12-12T17:18:41.741Z,99710.97
2022-12-12T17:21:11.112Z,99718.44
2022-12-12T17:23:37.755Z,99721.28
2022-12-12T17:26:05.623Z,99716.16
2022-12-12T17:28:37.767Z,99724.94
2022-12-12T17:31:11.067Z,99718.72
2022-12-12T17:33:46.211Z,99720.91
2022-12-12T17:36:16.433Z,99717.66
2022-12-12T17:38:43.308Z,99725.41
2022-12-12T17:41:10.903Z,99716.75
2022-12-12T17:43:37.752Z,99719.09
2022-12-12T17:46:08.265Z,99716.72
2022-12-12T17:48:37.779Z,99738.91
2022-12-12T17:51:07.278Z,99739.94
2022-12-12T17:53:40.271Z,99731.69
2022-12-12T17:56:07.719Z,99733.03
2022-12-12T17:58:38.423Z,99739.69
2022-12-12T18:01:14.530Z,99743.66
2022-12-12T18:03:44.738Z,99751.78
2022-12-12T18:06:11.540Z,99752.03
2022-12-12T18:08:38.262Z,99756.69
2022-12-12T18:11:09.029Z,99762.47
2022-12-12T18:13:41.351Z,99754.28
2022-12-12T18:16:11.597Z,99755.19
2022-12-12T18:18:38.630Z,99754.00
2022-12-12T18:21:42.895Z,99750.53
2022-12-12T18:24:02.111Z,99752.50
2022-12-12T18:26:31.200Z,99749.63
2022-12-12T18:28:59.106Z,99752.50
2022-12-12T18:31:30.028Z,99748.41
2022-12-12T18:33:56.747Z,99746.63
2022-12-12T18:36:26.914Z,99754.72
2022-12-12T18:38:56.117Z,99757.28
2022-12-12T18:41:22.777Z,99768.34
2022-12-12T18:43:49.566Z,99769.00
2022-12-12T18:46:18.015Z,99764.56
2022-12-12T18:48:45.347Z,99771.66
2022-12-12T18:51:11.938Z,99770.44
2022-12-12T18:53:44.218Z,99772.34
2022-12-12T18:56:12.115Z,99769.66
2022-12-12T18:58:38.677Z,99772.97
2022-12-12T19:01:12.003Z,99783.47
2022-12-12T19:03:39.397Z,99784.34
2022-12-12T19:06:06.774Z,99787.72
2022-12-12T19:08:36.016Z,99787.03
2022-12-12T19:11:06.341Z,99783.84
2022-12-12T19:13:35.195Z,99795.78
2022-12-12T19:16:05.376Z,99795.56
2022-12-12T19:18:32.052Z,99795.56
2022-12-12T19:21:03.196Z,99793.81
2022-12-12T19:23:32.312Z,99797.75
2022-12-12T19:26:07.377Z,99797.72
2022-12-12T19:28:34.305Z,99804.22
2022-12-12T19:31:11.182Z,99802.16
2022-12-12T19:33:37.964Z,99810.38
2022-12-12T19:36:10.838Z,99817.22
2022-12-12T19:38:37.370Z,99817.69
2022-12-12T19:41:04.820Z,99812.38
2022-12-12T19:43:31.528Z,99817.88
2022-12-12T19:46:05.090Z,99811.88
2022-12-12T19:48:35.252Z,99822.06
2022-12-12T19:51:32.591Z,99838.34
2022-12-12T19:53:59.776Z,99828.53
2022-12-12T19:56:27.480Z,99834.75
2022-12-12T19:58:56.920Z,99838.84
2022-12-12T20:01:25.196Z,99837.75
2022-12-12T20:03:55.828Z,99833.75
2022-12-12T20:06:22.835Z,99836.81
2022-12-12T20:08:50.366Z,99839.06
2022-12-12T20:11:20.895Z,99843.75
2022-12-12T20:13:49.425Z,99850.41
2022-12-12T20:16:17.207Z,99854.75
2022-12-12T20:18:44.567Z,99857.97
2022-12-12T20:21:29.862Z,99852.44
2022-12-12T20:24:01.508Z,99853.78
2022-12-12T20:26:31.124Z,99849.91
2022-12-12T20:28:59.589Z,99857.06
2022-12-12T20:31:31.230Z,99855.81
2022-12-12T20:33:58.535Z,99856.47
2022-12-12T20:36:29.386Z,99861.81
2022-12-12T20:38:56.876Z,99856.50
2022-12-12T20:41:27.621Z,99861.19
2022-12-12T20:43:57.417Z,99857.28
2022-12-12T20:46:25.550Z,99849.41
2022-12-12T20:48:52.409Z,99851.81
2022-12-12T20:51:53.522Z,99853.41
2022-12-12T20:54:08.468Z,99859.38
2022-12-12T20:56:40.320Z,99851.47
2022-12-12T20:59:20.059Z,99849.41
2022-12-12T21:01:47.444Z,99850.06
2022-12-12T21:04:16.652Z,99855.69
2022-12-12T21:06:48.153Z,99854.22
2022-12-12T21:09:22.631Z,99862.09
2022-12-12T21:11:50.098Z,99875.69
2022-12-12T21:14:16.619Z,99866.34
2022-12-12T21:16:43.383Z,99875.09
2022-12-12T21:19:11.561Z,99876.47
2022-12-12T21:21:38.895Z,99875.81
2022-12-12T21:24:07.941Z,99868.75
2022-12-12T21:26:36.825Z,99869.47
2022-12-12T21:29:06.092Z,99875.69
2022-12-12T21:31:36.988Z,99874.69
2022-12-12T21:34:04.048Z,99877.16
2022-12-12T21:36:30.692Z,99878.72
2022-12-12T21:38:58.053Z,99878.13
2022-12-12T21:41:24.712Z,99875.66
2022-12-12T21:43:52.143Z,99870.22
2022-12-12T21:46:22.065Z,99883.34
2022-12-12T21:49:11.398Z,99880.50
2022-12-12T21:51:41.098Z,99880.75
2022-12-12T21:54:14.740Z,99880.47
2022-12-12T21:56:42.356Z,99880.63
2022-12-12T21:59:12.702Z,99881.13
2022-12-12T22:01:39.401Z,99883.25
2022-12-12T22:04:08.318Z,99870.28
2022-12-12T22:06:37.737Z,99881.44
2022-12-12T22:09:05.409Z,99875.16
2022-12-12T22:11:41.328Z,99874.09
2022-12-12T22:14:19.478Z,99874.81
2022-12-12T22:16:46.181Z,99868.16
2022-12-12T22:19:13.607Z,99873.78
2022-12-12T22:21:40.235Z,99872.66
2022-12-12T22:24:06.986Z,99882.16
2022-12-12T22:26:34.738Z,99876.66
2022-12-12T22:29:02.139Z,99887.41
2022-12-12T22:31:33.066Z,99881.63
2022-12-12T22:34:00.541Z,99897.34
2022-12-12T22:36:31.140Z,99882.59
2022-12-12T22:38:58.105Z,99885.06
2022-12-12T22:41:25.136Z,99886.53
2022-12-12T22:43:55.432Z,99902.97
2022-12-12T22:46:22.640Z,99883.97
2022-12-12T22:48:49.300Z,99892.44
2022-12-12T22:51:20.103Z,99897.63
2022-12-12T22:53:46.679Z,99891.25
2022-12-12T22:56:13.467Z,99893.25
2022-12-12T22:58:40.340Z,99898.69
2022-12-12T23:01:16.407Z,99891.28
2022-12-12T23:03:43.128Z,99896.16
2022-12-12T23:06:11.151Z,99892.50
2022-12-12T23:08:38.074Z,99892.50
2022-12-12T23:11:08.953Z,99890.97
2022-12-12T23:13:35.532Z,99893.94
2022-12-12T23:16:11.098Z,99896.81
2022-12-12T23:18:38.286Z,99900.44
2022-12-12T23:21:05.797Z,99900.34
2022-12-12T23:23:35.044Z,99905.91
2022-12-12T23:26:07.671Z,99909.22
2022-12-12T23:28:34.545Z,99915.72
2022-12-12T23:31:03.455Z,99925.06
2022-12-12T23:33:30.051Z,99915.44
2022-12-12T23:35:56.674Z,99922.94
2022-12-12T23:38:23.214Z,99917.41
2022-12-12T23:40:49.909Z,99921.03
2022-12-12T23:43:16.540Z,99918.28
2022-12-12T23:45:43.925Z,99921.19
2022-12-12T23:48:10.594Z,99922.28
2022-12-12T23:50:37.107Z,99921.28
2022-12-12T23:53:10.483Z,99917.94
2022-12-12T23:55:37.314Z,99925.56
2022-12-12T23:58:06.680Z,99922.50
